Time;durP1;ratioP1;P1;durP2;ratioP2;P2;SDS_P1;SDS_P2;PMS_P1;PMS_P2;Temp;Humidity;BMP_temperature;BMP_pressure;BME280_temperature;BME280_humidity;BME280_pressure;Samples;Min_cycle;Max_cycle;Signal;HPM_P1;HPM_P2
2022/05/07 00:00:17;;;;;;;10.63;6.45;;;20.10;60.20;;;;;;5044886;28;20087;-62
2022/05/07 00:02:42;;;;;;;11.63;7.07;;;20.10;60.20;;;;;;5040657;28;20021;-62
2022/05/07 00:05:08;;;;;;;10.85;7.05;;;20.10;60.30;;;;;;5038702;28;20072;-62
2022/05/07 00:07:34;;;;;;;11.40;7.20;;;20.00;60.20;;;;;;5044206;28;20028;-62
2022/05/07 00:09:59;;;;;;;11.35;6.88;;;20.10;60.30;;;;;;5040702;28;20060;-62
2022/05/07 00:12:25;;;;;;;12.40;7.13;;;20.00;60.20;;;;;;5042086;28;20017;-62
2022/05/07 00:14:51;;;;;;;10.82;7.05;;;20.00;60.20;;;;;;5039101;28;20374;-62
2022/05/07 00:20:01;;;;;;;9.98;6.60;;;20.00;60.20;;;;;;5039845;28;20039;-62
2022/05/07 00:22:27;;;;;;;10.63;7.32;;;20.00;60.20;;;;;;5042486;28;20504;-62
2022/05/07 00:24:52;;;;;;;11.75;6.93;;;20.00;60.20;;;;;;5033554;28;20032;-62
2022/05/07 00:27:18;;;;;;;10.55;7.13;;;20.00;60.20;;;;;;5039302;28;20858;-62
2022/05/07 00:29:44;;;;;;;13.00;6.80;;;20.00;60.30;;;;;;5040126;28;20044;-62
2022/05/07 00:32:10;;;;;;;10.30;6.70;;;20.00;60.20;;;;;;5039978;28;20032;-62
2022/05/07 00:34:35;;;;;;;11.18;7.00;;;20.00;60.20;;;;;;5038014;28;20092;-62
2022/05/07 00:37:01;;;;;;;11.60;6.70;;;20.00;60.20;;;;;;5034376;28;20037;-62
2022/05/07 00:39:27;;;;;;;9.95;6.45;;;20.00;60.20;;;;;;5035129;28;20115;-62
2022/05/07 00:41:53;;;;;;;9.82;6.43;;;19.90;60.10;;;;;;5035708;28;20029;-62
2022/05/07 00:44:20;;;;;;;10.55;6.53;;;19.90;60.10;;;;;;5031301;28;20057;-62
2022/05/07 00:46:47;;;;;;;10.30;7.15;;;19.90;60.10;;;;;;5038921;28;20040;-62
2022/05/07 00:49:12;;;;;;;11.05;6.90;;;19.90;60.20;;;;;;5051406;28;20036;-62
2022/05/07 00:51:38;;;;;;;10.73;6.95;;;19.90;60.20;;;;;;5063667;28;20045;-62
2022/05/07 00:54:05;;;;;;;11.40;7.05;;;19.90;60.20;;;;;;5039461;28;20048;-62
2022/05/07 00:56:31;;;;;;;10.35;7.13;;;19.90;60.30;;;;;;5045141;28;20021;-62
2022/05/07 00:58:57;;;;;;;9.63;6.57;;;19.90;60.30;;;;;;5043002;28;20053;-62
2022/05/07 01:01:23;;;;;;;11.40;7.07;;;19.90;60.20;;;;;;5042710;28;20497;-62
2022/05/07 01:03:49;;;;;;;9.30;6.45;;;19.90;60.20;;;;;;5039472;28;20030;-62
2022/05/07 01:06:15;;;;;;;10.27;6.90;;;19.90;60.20;;;;;;5037248;28;20111;-62
2022/05/07 01:08:41;;;;;;;10.25;6.70;;;19.80;60.20;;;;;;5044545;28;20108;-62
2022/05/07 01:11:06;;;;;;;9.82;6.70;;;19.80;60.20;;;;;;5035189;28;20503;-62
2022/05/07 01:13:32;;;;;;;9.80;6.70;;;19.80;60.20;;;;;;5043185;28;20037;-62
2022/05/07 01:15:58;;;;;;;9.65;6.40;;;19.80;60.10;;;;;;5042512;28;20028;-62
2022/05/07 01:18:24;;;;;;;11.20;6.97;;;19.80;60.20;;;;;;5042301;28;20028;-62
2022/05/07 01:20:49;;;;;;;10.18;6.93;;;19.80;60.20;;;;;;5038096;28;20065;-62
2022/05/07 01:23:15;;;;;;;9.82;6.32;;;19.80;60.20;;;;;;5046384;28;20026;-62
2022/05/07 01:25:41;;;;;;;10.07;6.50;;;19.80;60.10;;;;;;5071645;28;20064;-62
2022/05/07 01:28:07;;;;;;;10.45;6.65;;;19.80;60.10;;;;;;5045250;28;20382;-61
2022/05/07 01:30:35;;;;;;;10.25;6.72;;;19.80;60.20;;;;;;5034975;28;20033;-62
2022/05/07 01:33:01;;;;;;;9.52;6.38;;;19.80;60.20;;;;;;5042903;28;20037;-62
2022/05/07 01:35:27;;;;;;;10.50;6.15;;;19.70;60.10;;;;;;5033456;28;20388;-62
2022/05/07 01:37:52;;;;;;;9.23;6.45;;;19.80;60.10;;;;;;5039795;28;20103;-62
2022/05/07 01:40:18;;;;;;;9.30;6.43;;;19.80;60.20;;;;;;5043061;28;20399;-62
2022/05/07 01:42:44;;;;;;;10.35;6.43;;;19.80;60.20;;;;;;5042687;28;20032;-62
2022/05/07 01:45:09;;;;;;;9.82;6.05;;;19.70;60.10;;;;;;5038968;28;20049;-62
2022/05/07 01:50:22;;;;;;;11.02;6.78;;;19.70;60.10;;;;;;5035811;28;20158;-62
2022/05/07 01:52:48;;;;;;;10.20;6.40;;;19.70;60.10;;;;;;5046765;28;20499;-62
2022/05/07 01:55:14;;;;;;;9.65;6.55;;;19.70;60.10;;;;;;5042179;28;20072;-62
2022/05/07 01:57:39;;;;;;;11.82;6.47;;;19.70;60.10;;;;;;5040254;28;20433;-62
2022/05/07 02:00:06;;;;;;;9.68;6.07;;;19.70;60.20;;;;;;5039954;28;20032;-62
2022/05/07 02:02:31;;;;;;;9.38;6.13;;;19.70;60.10;;;;;;5034352;28;20029;-62
2022/05/07 02:04:57;;;;;;;9.30;6.13;;;19.70;60.20;;;;;;5034876;28;20447;-62
2022/05/07 02:07:23;;;;;;;9.80;6.70;;;19.70;60.10;;;;;;5039584;28;20496;-62
2022/05/07 02:09:48;;;;;;;9.57;6.32;;;19.70;60.20;;;;;;5037374;28;20669;-62
2022/05/07 02:12:14;;;;;;;9.20;6.10;;;19.70;60.20;;;;;;5036196;28;20378;-62
2022/05/07 02:14:40;;;;;;;8.88;6.13;;;19.70;60.20;;;;;;5038010;28;22047;-62
2022/05/07 02:17:05;;;;;;;9.27;6.05;;;19.70;60.20;;;;;;5055564;28;20056;-62
2022/05/07 02:19:31;;;;;;;9.32;6.30;;;19.60;60.20;;;;;;5049137;28;20461;-62
2022/05/07 02:21:56;;;;;;;8.70;5.75;;;19.70;60.20;;;;;;5034163;28;20574;-62
2022/05/07 02:24:22;;;;;;;9.88;6.03;;;19.60;60.10;;;;;;5038104;28;20029;-63
2022/05/07 02:26:48;;;;;;;9.38;6.13;;;19.60;60.20;;;;;;5035439;28;20021;-63
2022/05/07 02:29:14;;;;;;;9.60;6.38;;;19.60;60.10;;;;;;5041636;28;20033;-62
2022/05/07 02:31:40;;;;;;;9.20;6.10;;;19.60;60.20;;;;;;5044067;28;20037;-63
2022/05/07 02:34:06;;;;;;;9.73;6.03;;;19.60;60.10;;;;;;5032084;28;20075;-62
2022/05/07 02:36:32;;;;;;;9.05;6.20;;;19.60;60.20;;;;;;5035762;28;20559;-62
2022/05/07 02:38:59;;;;;;;9.13;5.95;;;19.60;60.20;;;;;;5037430;28;20037;-62
2022/05/07 02:44:09;;;;;;;8.32;5.75;;;19.60;60.20;;;;;;5042446;28;20036;-62
2022/05/07 02:46:35;;;;;;;9.35;6.13;;;19.60;60.20;;;;;;5050600;28;20029;-62
2022/05/07 02:49:01;;;;;;;8.82;6.10;;;19.60;60.30;;;;;;5041182;28;20177;-62
2022/05/07 02:51:26;;;;;;;9.48;6.20;;;19.60;60.30;;;;;;5035463;28;20781;-63
2022/05/07 02:53:52;;;;;;;9.45;5.95;;;19.60;60.30;;;;;;5037429;28;20022;-62
2022/05/07 02:56:17;;;;;;;9.10;5.95;;;19.60;60.30;;;;;;5050108;28;20034;-62
2022/05/07 02:58:43;;;;;;;9.38;6.28;;;19.60;60.30;;;;;;5043734;28;20029;-62
2022/05/07 03:01:09;;;;;;;8.63;5.80;;;19.60;60.30;;;;;;5041417;28;20116;-62
2022/05/07 03:03:34;;;;;;;9.32;6.43;;;19.50;60.20;;;;;;5037499;28;20105;-62
2022/05/07 03:06:00;;;;;;;10.43;6.18;;;19.50;60.30;;;;;;5036417;28;20068;-63
2022/05/07 03:08:26;;;;;;;9.80;6.22;;;19.50;60.30;;;;;;5047339;28;20474;-62
2022/05/07 03:10:52;;;;;;;8.30;5.45;;;19.50;60.20;;;;;;5044178;28;20043;-62
2022/05/07 03:13:18;;;;;;;9.00;6.30;;;19.60;60.30;;;;;;5038094;28;20033;-62
2022/05/07 03:15:44;;;;;;;8.95;6.03;;;19.50;60.30;;;;;;5040922;28;20061;-62
2022/05/07 03:18:11;;;;;;;9.50;6.47;;;19.50;60.30;;;;;;5038846;28;20403;-63
2022/05/07 03:20:37;;;;;;;9.52;6.07;;;19.50;60.30;;;;;;5042216;28;20039;-62
2022/05/07 03:23:02;;;;;;;8.45;5.95;;;19.50;60.40;;;;;;5040779;28;20034;-62
2022/05/07 03:25:28;;;;;;;8.20;5.80;;;19.50;61.40;;;;;;5051811;28;20060;-62
2022/05/07 03:27:54;;;;;;;8.98;5.53;;;19.50;60.30;;;;;;5036633;28;20025;-62
2022/05/07 03:30:19;;;;;;;9.68;6.00;;;19.50;60.30;;;;;;5037384;28;20036;-62
2022/05/07 03:32:46;;;;;;;8.65;5.82;;;19.50;60.30;;;;;;5038089;28;20021;-62
2022/05/07 03:35:12;;;;;;;8.90;5.50;;;19.40;60.30;;;;;;5044417;28;20029;-62
2022/05/07 03:37:37;;;;;;;9.38;6.05;;;19.40;60.30;;;;;;5038047;28;20025;-62
2022/05/07 03:40:03;;;;;;;8.27;5.72;;;19.40;60.30;;;;;;5049052;28;20489;-62
2022/05/07 03:42:33;;;;;;;8.60;5.85;;;19.50;60.20;;;;;;5044920;28;20492;-62
2022/05/07 03:44:59;;;;;;;8.38;5.55;;;19.40;60.20;;;;;;5037059;28;20034;-62
2022/05/07 03:47:25;;;;;;;9.90;6.07;;;19.40;60.20;;;;;;5049068;28;20040;-62
2022/05/07 03:49:51;;;;;;;9.30;5.85;;;19.40;60.30;;;;;;5041989;28;20401;-62
2022/05/07 03:55:02;;;;;;;8.50;5.78;;;19.40;60.30;;;;;;5039909;28;20036;-62
2022/05/07 03:57:28;;;;;;;9.23;5.50;;;19.40;60.30;;;;;;5037979;28;20459;-62
2022/05/07 03:59:54;;;;;;;8.68;5.40;;;19.40;60.30;;;;;;5037753;28;20394;-62
2022/05/07 04:02:19;;;;;;;9.07;5.65;;;19.40;60.40;;;;;;5039263;28;20042;-62
2022/05/07 04:04:45;;;;;;;9.35;5.60;;;19.40;60.30;;;;;;5040079;28;20486;-62
2022/05/07 04:07:11;;;;;;;8.93;6.00;;;19.40;60.30;;;;;;5037849;28;20549;-62
2022/05/07 04:09:37;;;;;;;8.02;5.45;;;19.40;60.30;;;;;;5034582;28;20528;-62
2022/05/07 04:12:03;;;;;;;8.25;5.50;;;19.40;60.40;;;;;;5040724;28;20056;-62
2022/05/07 04:14:29;;;;;;;8.50;5.72;;;19.40;60.40;;;;;;5042707;28;20052;-62
2022/05/07 04:16:54;;;;;;;8.63;5.97;;;19.30;60.50;;;;;;5048756;28;20021;-62
2022/05/07 04:19:20;;;;;;;8.55;5.50;;;19.40;60.50;;;;;;5045951;28;20065;-62
2022/05/07 04:21:46;;;;;;;9.55;5.82;;;19.40;60.60;;;;;;5045392;28;20021;-62
2022/05/07 04:24:11;;;;;;;8.90;6.07;;;19.30;60.50;;;;;;5038066;28;20513;-62
2022/05/07 04:26:37;;;;;;;9.13;5.78;;;19.40;60.50;;;;;;5044737;28;20029;-62
2022/05/07 04:29:03;;;;;;;9.80;5.78;;;19.30;60.50;;;;;;5042976;28;20029;-62
2022/05/07 04:31:28;;;;;;;8.52;5.78;;;19.30;60.60;;;;;;5041761;28;20517;-62
2022/05/07 04:33:54;;;;;;;9.13;5.72;;;19.30;60.60;;;;;;5039372;28;20138;-62
2022/05/07 04:36:20;;;;;;;9.23;5.70;;;19.30;61.70;;;;;;5039174;28;20493;-62
2022/05/07 04:38:45;;;;;;;9.00;5.90;;;19.30;60.60;;;;;;5037928;28;20278;-62
2022/05/07 04:41:12;;;;;;;9.13;6.05;;;19.30;60.60;;;;;;5051520;28;20060;-62
2022/05/07 04:43:38;;;;;;;9.20;6.28;;;19.30;60.70;;;;;;5043059;28;20438;-62
2022/05/07 04:46:03;;;;;;;8.40;5.53;;;19.30;60.60;;;;;;5068200;28;20049;-62
2022/05/07 04:48:29;;;;;;;8.60;5.47;;;19.30;60.60;;;;;;5046115;28;20021;-62
2022/05/07 04:50:55;;;;;;;8.00;5.07;;;19.30;60.80;;;;;;5043531;28;20413;-62
2022/05/07 04:53:21;;;;;;;9.20;6.10;;;19.30;60.80;;;;;;5046651;28;20036;-62
2022/05/07 04:55:46;;;;;;;8.10;5.50;;;19.30;60.70;;;;;;5043013;28;20025;-62
2022/05/07 04:58:12;;;;;;;8.52;5.80;;;19.30;60.70;;;;;;5043365;28;20223;-62
2022/05/07 05:00:38;;;;;;;8.68;5.68;;;19.30;60.80;;;;;;5040809;28;20021;-62
2022/05/07 05:03:03;;;;;;;8.85;5.40;;;19.30;60.70;;;;;;5037047;28;20040;-62
2022/05/07 05:05:29;;;;;;;8.18;5.15;;;19.30;60.80;;;;;;5041297;28;20166;-62
2022/05/07 05:07:55;;;;;;;8.32;5.47;;;19.30;60.70;;;;;;5040319;28;20036;-62
2022/05/07 05:10:22;;;;;;;9.00;6.22;;;19.30;60.80;;;;;;5045949;28;20037;-62
2022/05/07 05:12:48;;;;;;;8.85;5.68;;;19.30;60.90;;;;;;5042993;28;20574;-62
2022/05/07 05:15:14;;;;;;;8.05;5.38;;;19.30;60.90;;;;;;5035670;28;20135;-62
2022/05/07 05:17:39;;;;;;;8.20;5.30;;;19.30;60.90;;;;;;5041888;28;20097;-62
2022/05/07 05:20:05;;;;;;;8.27;5.60;;;19.30;60.90;;;;;;5041988;28;20025;-62
2022/05/07 05:22:31;;;;;;;8.52;5.30;;;19.30;61.00;;;;;;5040499;28;20029;-62
2022/05/07 05:24:57;;;;;;;8.13;5.40;;;19.30;61.00;;;;;;5035511;28;20044;-62
2022/05/07 05:27:23;;;;;;;8.60;5.68;;;19.30;61.00;;;;;;5043021;28;20033;-62
2022/05/07 05:29:50;;;;;;;8.63;5.70;;;19.20;61.00;;;;;;5047088;28;20037;-62
2022/05/07 05:32:19;;;;;;;9.00;5.57;;;19.30;61.00;;;;;;5044781;28;20174;-62
2022/05/07 05:34:48;;;;;;;8.95;5.85;;;19.20;61.00;;;;;;5035342;28;20033;-62
2022/05/07 05:37:15;;;;;;;8.35;5.60;;;19.20;61.00;;;;;;5045130;28;20040;-62
2022/05/07 05:39:40;;;;;;;8.32;5.45;;;19.20;61.00;;;;;;5039343;28;20364;-62
2022/05/07 05:42:06;;;;;;;8.82;6.00;;;19.20;61.00;;;;;;5038344;28;20033;-62
2022/05/07 05:44:37;;;;;;;8.55;5.22;;;19.20;61.00;;;;;;5035957;28;20045;-62
2022/05/07 05:47:04;;;;;;;9.00;5.90;;;19.20;61.00;;;;;;5043287;28;20056;-62
2022/05/07 05:49:29;;;;;;;9.18;5.72;;;19.20;61.00;;;;;;5041178;28;20608;-62
2022/05/07 05:51:55;;;;;;;8.85;6.13;;;19.20;61.00;;;;;;5044326;28;20119;-62
2022/05/07 05:54:21;;;;;;;8.65;5.28;;;19.20;61.00;;;;;;5041201;28;20070;-62
2022/05/07 05:56:46;;;;;;;9.05;5.90;;;19.20;61.10;;;;;;5042384;28;20121;-62
2022/05/07 05:59:12;;;;;;;8.35;5.55;;;19.20;61.00;;;;;;5038135;28;20040;-62
2022/05/07 06:01:38;;;;;;;9.18;6.05;;;19.20;61.10;;;;;;5046309;28;20025;-62
2022/05/07 06:04:03;;;;;;;9.10;6.10;;;19.20;61.10;;;;;;5041997;28;20029;-62
2022/05/07 06:06:29;;;;;;;8.93;5.72;;;19.20;61.10;;;;;;5040096;28;20045;-62
2022/05/07 06:08:55;;;;;;;8.68;5.40;;;19.20;61.10;;;;;;5043438;28;20040;-63
2022/05/07 06:11:20;;;;;;;8.13;5.57;;;19.20;61.10;;;;;;5042210;28;20152;-62
2022/05/07 06:13:47;;;;;;;7.97;5.50;;;19.20;61.20;;;;;;5038906;28;20108;-62
2022/05/07 06:16:13;;;;;;;8.48;5.22;;;19.20;61.20;;;;;;5047808;28;20037;-62
2022/05/07 06:18:38;;;;;;;8.80;5.60;;;19.20;61.20;;;;;;5039661;28;20032;-62
2022/05/07 06:21:04;;;;;;;8.00;4.70;;;19.10;60.90;;;;;;5039508;28;20035;-63
2022/05/07 06:23:30;;;;;;;7.65;5.03;;;19.20;61.00;;;;;;5042284;28;20025;-63
2022/05/07 06:29:01;;;;;;;8.27;5.20;;;19.20;61.00;;;;;;5043202;28;20624;-62
2022/05/07 06:31:27;;;;;;;9.82;4.85;;;19.20;61.00;;;;;;5037509;28;20498;-62
2022/05/07 06:33:52;;;;;;;9.88;5.25;;;19.10;60.90;;;;;;5043983;28;20075;-62
2022/05/07 06:36:18;;;;;;;9.65;5.05;;;19.20;61.00;;;;;;5035978;28;20506;-62
2022/05/07 06:38:44;;;;;;;8.07;5.07;;;19.10;60.90;;;;;;5041916;28;20133;-62
2022/05/07 06:41:09;;;;;;;8.10;4.43;;;19.10;60.90;;;;;;5046227;28;21177;-61
2022/05/07 06:43:35;;;;;;;8.25;4.90;;;19.10;61.00;;;;;;5042686;28;20128;-62
2022/05/07 06:46:01;;;;;;;8.38;5.22;;;19.10;61.10;;;;;;5040363;28;20092;-61
2022/05/07 06:48:26;;;;;;;9.00;4.85;;;19.10;61.20;;;;;;5043192;28;20433;-61
2022/05/07 06:50:53;;;;;;;8.05;4.90;;;19.10;61.30;;;;;;5043250;28;20417;-62
2022/05/07 06:53:18;;;;;;;9.30;5.15;;;19.10;61.40;;;;;;5043207;28;20138;-62
2022/05/07 06:55:58;;;;;;;10.10;5.85;;;19.20;61.40;;;;;;5038772;28;20033;-62
2022/05/07 06:58:34;;;;;;;9.73;5.05;;;19.10;61.50;;;;;;5039946;28;20028;-62
2022/05/07 07:01:01;;;;;;;9.77;4.95;;;19.10;61.50;;;;;;5037812;28;20037;-61
2022/05/07 07:03:27;;;;;;;12.70;5.78;;;19.10;61.70;;;;;;5039391;28;20029;-61
2022/05/07 07:05:53;;;;;;;11.30;5.32;;;19.20;62.80;;;;;;5031910;28;20104;-61
2022/05/07 07:08:19;;;;;;;9.63;5.28;;;19.10;62.80;;;;;;5037193;28;20033;-62
2022/05/07 07:10:45;;;;;;;14.10;5.93;;;19.20;63.00;;;;;;5038862;28;20111;-61
2022/05/07 07:13:11;;;;;;;12.27;5.55;;;19.20;63.20;;;;;;5043008;28;20035;-62
2022/05/07 07:15:41;;;;;;;13.18;5.45;;;19.20;62.90;;;;;;5034070;28;20079;-61
2022/05/07 07:18:09;;;;;;;11.88;5.50;;;19.20;62.60;;;;;;5036172;28;20149;-62
2022/05/07 07:20:41;;;;;;;8.63;5.00;;;19.20;62.70;;;;;;5045032;28;20394;-62
2022/05/07 07:23:07;;;;;;;10.18;4.90;;;19.20;62.80;;;;;;5035650;28;20041;-61
2022/05/07 07:25:32;;;;;;;10.13;5.30;;;19.20;62.80;;;;;;5035082;28;20033;-61
2022/05/07 07:27:58;;;;;;;11.90;5.13;;;19.20;62.60;;;;;;5033481;28;20033;-62
2022/05/07 07:30:24;;;;;;;10.85;4.95;;;19.20;62.70;;;;;;5034577;28;20041;-62
2022/05/07 07:32:50;;;;;;;11.52;5.32;;;19.10;62.60;;;;;;5036536;28;20044;-63
2022/05/07 07:35:16;;;;;;;8.43;5.05;;;19.20;62.60;;;;;;5045576;28;20037;-63
2022/05/07 07:37:45;;;;;;;9.40;5.18;;;19.20;62.70;;;;;;5032960;28;20025;-63
2022/05/07 07:40:12;;;;;;;9.73;5.43;;;19.20;62.90;;;;;;5038795;28;20322;-63
2022/05/07 07:42:40;;;;;;;10.50;5.40;;;19.20;62.90;;;;;;5044468;28;20389;-62
2022/05/07 07:47:59;;;;;;;10.68;5.28;;;19.20;62.80;;;;;;5043948;28;22066;-62
2022/05/07 07:50:30;;;;;;;10.13;5.43;;;19.20;63.00;;;;;;5045747;28;20028;-62
2022/05/07 07:52:57;;;;;;;10.82;5.13;;;19.20;63.00;;;;;;5040464;28;20416;-61
2022/05/07 07:55:23;;;;;;;12.48;5.28;;;19.30;63.10;;;;;;5044195;28;20452;-61
2022/05/07 07:57:53;;;;;;;13.10;5.50;;;19.20;62.90;;;;;;5043153;28;20025;-62
2022/05/07 08:00:19;;;;;;;9.20;4.60;;;19.30;62.80;;;;;;5040312;28;20029;-62
2022/05/07 08:02:53;;;;;;;9.40;5.05;;;19.30;62.80;;;;;;5043448;28;20507;-62
2022/05/07 08:05:29;;;;;;;10.95;5.28;;;19.20;62.80;;;;;;5042860;28;20028;-61
2022/05/07 08:13:26;;;;;;;11.25;5.90;;;19.30;64.10;;;;;;5041404;28;20180;-61
2022/05/07 08:15:56;;;;;;;10.50;5.47;;;19.30;63.90;;;;;;5050905;28;20033;-61
2022/05/07 08:18:22;;;;;;;8.38;4.78;;;19.30;64.30;;;;;;5042197;28;20112;-62
2022/05/07 08:20:47;;;;;;;17.10;5.28;;;19.30;63.10;;;;;;5037742;28;20120;-64
2022/05/07 08:23:13;;;;;;;11.40;4.80;;;19.30;62.80;;;;;;5038409;28;20386;-66
2022/05/07 08:25:40;;;;;;;7.93;4.53;;;19.40;62.80;;;;;;5037748;28;20111;-65
2022/05/07 08:28:05;;;;;;;8.27;4.55;;;19.30;62.80;;;;;;5039562;28;20249;-65
2022/05/07 08:30:31;;;;;;;8.52;4.50;;;19.40;62.70;;;;;;5038979;28;20037;-64
2022/05/07 08:32:57;;;;;;;10.27;4.85;;;19.40;62.60;;;;;;5038445;28;20028;-65
2022/05/07 08:35:23;;;;;;;9.85;4.70;;;19.40;62.60;;;;;;5037495;28;20045;-64
2022/05/07 08:37:50;;;;;;;10.48;4.68;;;19.40;62.60;;;;;;5037754;28;20037;-65
2022/05/07 08:40:18;;;;;;;9.43;4.50;;;19.50;62.60;;;;;;5036363;28;20520;-65
2022/05/07 08:42:44;;;;;;;11.90;4.55;;;19.50;62.70;;;;;;5039652;28;20049;-65
2022/05/07 08:45:12;;;;;;;18.45;4.80;;;19.50;62.70;;;;;;5033927;28;20077;-66
2022/05/07 08:47:39;;;;;;;14.40;4.43;;;19.60;62.70;;;;;;5035842;28;20422;-66
2022/05/07 08:50:09;;;;;;;14.55;5.00;;;19.60;62.70;;;;;;5040095;28;20043;-66
2022/05/07 08:52:40;;;;;;;14.18;4.78;;;19.60;62.60;;;;;;5046308;28;20028;-66
2022/05/07 08:55:06;;;;;;;13.48;5.20;;;19.60;62.70;;;;;;5035723;28;20071;-64
2022/05/07 08:57:32;;;;;;;13.13;4.85;;;19.60;62.70;;;;;;5041062;28;20520;-65
2022/05/07 08:59:58;;;;;;;18.23;5.22;;;19.60;62.70;;;;;;5044032;28;20033;-65
2022/05/07 09:02:24;;;;;;;13.45;4.28;;;19.80;62.70;;;;;;5041169;28;20048;-65
2022/05/07 09:05:11;;;;;;;17.23;4.40;;;20.00;62.30;;;;;;5044363;28;20083;-65
2022/05/07 09:08:03;;;;;;;15.40;4.82;;;20.00;62.10;;;;;;5039581;28;20036;-65
2022/05/07 09:10:33;;;;;;;12.00;4.40;;;20.00;62.00;;;;;;5038702;28;20038;-65
2022/05/07 09:13:15;;;;;;;16.00;4.50;;;20.00;62.10;;;;;;5040723;28;20025;-65
2022/05/07 09:15:54;;;;;;;11.20;4.28;;;20.00;62.30;;;;;;5042852;28;20041;-65
2022/05/07 09:18:20;;;;;;;12.27;4.35;;;19.90;62.40;;;;;;5046893;28;20047;-64
2022/05/07 09:21:16;;;;;;;11.32;3.22;;;19.90;62.80;;;;;;5039427;28;20065;-65
2022/05/07 09:23:44;;;;;;;11.13;3.00;;;19.80;64.20;;;;;;5035062;28;20028;-64
2022/05/07 09:26:10;;;;;;;10.77;2.58;;;19.60;63.50;;;;;;5039644;28;20029;-65
2022/05/07 09:28:38;;;;;;;8.00;2.60;;;19.30;63.50;;;;;;5035424;28;20041;-64
2022/05/07 09:31:04;;;;;;;9.60;2.53;;;19.20;64.00;;;;;;5040814;28;20041;-64
2022/05/07 09:33:37;;;;;;;9.93;2.60;;;19.30;63.80;;;;;;5041169;28;20033;-64
2022/05/07 09:36:10;;;;;;;9.32;2.50;;;19.40;63.60;;;;;;5039747;28;20041;-64
2022/05/07 09:38:38;;;;;;;8.75;2.72;;;19.50;63.30;;;;;;5039770;28;20108;-64
2022/05/07 09:41:04;;;;;;;8.13;2.72;;;19.50;63.50;;;;;;5036275;28;20033;-64
2022/05/07 09:43:31;;;;;;;8.23;2.65;;;19.50;63.40;;;;;;5034029;28;20616;-65
2022/05/07 09:46:01;;;;;;;10.07;3.03;;;19.60;63.80;;;;;;5035730;28;20037;-64
2022/05/07 09:48:38;;;;;;;8.30;2.55;;;19.60;64.30;;;;;;5062001;28;20037;-66
2022/05/07 09:51:10;;;;;;;14.85;2.83;;;19.60;63.80;;;;;;5036839;28;20048;-64
2022/05/07 09:59:06;;;;;;;9.55;2.90;;;19.70;63.00;;;;;;5041780;28;20082;-64
2022/05/07 10:01:59;;;;;;;9.43;3.28;;;19.70;63.20;;;;;;5038512;28;20038;-64
2022/05/07 10:04:38;;;;;;;7.78;2.63;;;19.70;64.00;;;;;;5035165;28;20031;-64
2022/05/07 10:07:45;;;;;;;7.38;2.47;;;19.70;63.70;;;;;;5037410;28;20044;-64
2022/05/07 10:10:25;;;;;;;7.25;2.38;;;19.80;63.70;;;;;;5036416;28;20056;-64
2022/05/07 10:12:53;;;;;;;8.52;2.72;;;19.80;63.10;;;;;;5034081;28;20401;-64
2022/05/07 10:15:23;;;;;;;7.60;2.67;;;19.80;63.20;;;;;;5035906;28;20489;-64
2022/05/07 10:18:14;;;;;;;9.63;2.70;;;19.80;63.10;;;;;;5027925;28;20037;-65
2022/05/07 10:20:41;;;;;;;8.93;2.75;;;19.70;62.30;;;;;;5033439;28;20148;-64
2022/05/07 10:23:10;;;;;;;7.30;2.80;;;19.60;62.30;;;;;;5042313;28;20044;-65
2022/05/07 10:25:37;;;;;;;8.27;2.60;;;19.60;62.70;;;;;;5034290;28;20108;-65
2022/05/07 10:28:15;;;;;;;15.35;3.00;;;19.60;63.20;;;;;;5033062;28;20052;-65
2022/05/07 10:30:47;;;;;;;9.55;2.90;;;19.60;64.20;;;;;;5038573;28;20035;-65
2022/05/07 10:33:13;;;;;;;13.98;3.33;;;19.60;64.30;;;;;;5036849;28;20079;-65
2022/05/07 10:35:58;;;;;;;13.88;2.58;;;19.60;64.30;;;;;;5039881;28;20444;-66
2022/05/07 10:38:28;;;;;;;8.60;2.88;;;19.60;64.10;;;;;;5038107;28;20477;-64
2022/05/07 10:41:01;;;;;;;11.60;2.88;;;19.60;63.90;;;;;;5045405;28;20082;-64
2022/05/07 10:43:34;;;;;;;9.90;2.70;;;19.60;63.80;;;;;;5046276;28;20025;-64
2022/05/07 10:46:04;;;;;;;11.57;2.92;;;19.60;63.30;;;;;;5047676;28;20225;-64
2022/05/07 10:48:40;;;;;;;8.73;2.80;;;19.60;63.30;;;;;;5052410;28;20033;-64
2022/05/07 10:51:06;;;;;;;10.45;2.60;;;19.60;63.20;;;;;;5031525;28;20120;-60
2022/05/07 10:53:36;;;;;;;9.70;2.80;;;19.60;63.60;;;;;;5065508;28;20112;-58
2022/05/07 10:56:02;;;;;;;8.90;2.70;;;19.60;63.40;;;;;;5045846;28;20128;-59
2022/05/07 10:58:28;;;;;;;7.97;2.63;;;19.60;63.20;;;;;;5038795;28;20183;-59
2022/05/07 11:00:56;;;;;;;8.35;3.45;;;19.60;63.20;;;;;;5040424;28;20435;-59
2022/05/07 11:03:27;;;;;;;9.48;3.10;;;19.60;63.70;;;;;;5033254;28;20029;-58
2022/05/07 11:05:59;;;;;;;13.75;3.92;;;19.60;63.10;;;;;;5030041;28;20025;-59
2022/05/07 11:08:26;;;;;;;11.93;3.35;;;19.60;62.90;;;;;;5038389;28;20040;-59
2022/05/07 11:11:11;;;;;;;10.05;3.33;;;19.50;63.00;;;;;;5043754;28;20095;-59
2022/05/07 11:13:50;;;;;;;8.82;3.30;;;19.60;63.10;;;;;;5042890;28;20032;-59
2022/05/07 11:16:19;;;;;;;8.98;3.08;;;19.60;63.00;;;;;;5033118;28;20025;-59
2022/05/07 11:18:52;;;;;;;9.35;3.30;;;19.60;63.00;;;;;;5031417;28;20095;-59
2022/05/07 11:21:21;;;;;;;11.45;3.88;;;19.60;63.00;;;;;;5040215;28;20021;-58
2022/05/07 11:23:57;;;;;;;21.15;15.63;;;19.60;62.70;;;;;;5038428;28;20501;-59
2022/05/07 11:26:23;;;;;;;32.05;23.35;;;19.60;62.70;;;;;;5042737;28;20508;-59
2022/05/07 11:28:49;;;;;;;122.55;86.03;;;19.50;62.90;;;;;;5043917;28;20018;-59
2022/05/07 11:31:34;;;;;;;68.03;50.67;;;19.50;62.90;;;;;;5041207;28;20048;-58
2022/05/07 11:34:10;;;;;;;56.72;43.80;;;19.50;62.90;;;;;;5032577;28;20107;-59
2022/05/07 11:36:36;;;;;;;30.80;22.10;;;19.50;62.90;;;;;;5041506;28;20424;-59
2022/05/07 11:39:04;;;;;;;29.83;22.48;;;19.50;62.80;;;;;;5040191;28;20025;-59
2022/05/07 11:41:30;;;;;;;15.23;8.98;;;19.50;62.70;;;;;;5041855;28;20044;-59
2022/05/07 11:47:00;;;;;;;14.55;7.35;;;19.60;63.00;;;;;;5026941;28;20693;-59
2022/05/07 11:49:33;;;;;;;14.88;6.63;;;19.60;62.80;;;;;;5025782;28;20109;-59
2022/05/07 11:52:11;;;;;;;11.40;5.30;;;19.50;62.50;;;;;;5021346;28;20061;-57
2022/05/07 11:54:57;;;;;;;9.32;4.55;;;19.60;62.60;;;;;;5024821;28;20367;-59
2022/05/07 11:57:29;;;;;;;10.50;4.00;;;19.60;62.90;;;;;;5036086;28;20057;-59
2022/05/07 11:59:56;;;;;;;11.15;4.20;;;19.60;62.60;;;;;;5025431;28;20121;-59
2022/05/07 12:02:21;;;;;;;11.65;4.50;;;19.60;62.80;;;;;;5027471;28;20179;-59
2022/05/07 12:04:57;;;;;;;12.02;3.83;;;19.70;62.90;;;;;;5029705;28;20418;-59
2022/05/07 12:07:23;;;;;;;11.07;3.75;;;19.70;63.20;;;;;;5016156;28;20162;-59
2022/05/07 12:09:49;;;;;;;9.00;3.67;;;19.70;63.70;;;;;;5025820;28;20033;-59
2022/05/07 12:12:14;;;;;;;9.98;3.60;;;19.70;63.70;;;;;;5026763;28;20421;-60
2022/05/07 12:14:40;;;;;;;10.43;3.47;;;19.70;63.60;;;;;;5027731;28;20033;-59
2022/05/07 12:19:50;;;;;;;8.18;3.30;;;19.60;63.70;;;;;;5043733;28;20445;-59
2022/05/07 12:30:28;;;;;;;9.48;3.90;;;19.60;63.10;;;;;;5033119;28;20084;-59
2022/05/07 12:32:55;;;;;;;11.45;3.72;;;19.70;63.50;;;;;;5036588;28;20548;-59
2022/05/07 12:35:21;;;;;;;10.05;3.55;;;19.60;63.40;;;;;;5047982;28;20036;-59
2022/05/07 12:37:46;;;;;;;12.48;3.80;;;19.60;63.00;;;;;;5034984;28;20418;-59
2022/05/07 12:40:12;;;;;;;8.93;3.78;;;19.60;63.00;;;;;;5037728;28;20064;-60
2022/05/07 12:42:38;;;;;;;10.80;3.50;;;19.50;63.40;;;;;;5037921;28;20029;-59
2022/05/07 12:45:04;;;;;;;9.82;3.70;;;19.50;63.30;;;;;;5031622;28;20047;-59
2022/05/07 12:47:30;;;;;;;8.98;3.70;;;19.60;63.10;;;;;;5034528;28;20029;-60
2022/05/07 12:49:56;;;;;;;9.90;3.60;;;19.60;63.10;;;;;;5034183;28;20403;-59
2022/05/07 12:52:24;;;;;;;9.90;3.50;;;19.60;62.90;;;;;;5036204;28;20517;-59
2022/05/07 12:54:50;;;;;;;9.82;3.63;;;19.60;62.80;;;;;;5035374;28;20051;-59
2022/05/07 12:57:16;;;;;;;10.57;3.90;;;19.60;62.90;;;;;;5033995;28;20036;-59
2022/05/07 12:59:42;;;;;;;10.65;3.83;;;19.70;63.10;;;;;;5031290;28;20036;-59
2022/05/07 13:02:11;;;;;;;11.20;4.40;;;19.70;63.10;;;;;;5045841;28;20521;-59
2022/05/07 13:04:36;;;;;;;9.55;3.97;;;19.60;63.10;;;;;;5036488;28;20045;-59
2022/05/07 13:07:04;;;;;;;11.25;4.18;;;19.60;63.20;;;;;;5047009;28;20036;-59
2022/05/07 13:09:32;;;;;;;12.77;4.50;;;19.60;63.20;;;;;;5039270;28;20106;-59
2022/05/07 13:11:57;;;;;;;9.93;4.15;;;19.70;63.00;;;;;;5046185;28;20465;-59
2022/05/07 13:14:24;;;;;;;13.73;4.53;;;19.60;63.00;;;;;;5031610;28;20061;-59
2022/05/07 13:16:50;;;;;;;10.85;4.40;;;19.70;63.60;;;;;;5040009;28;20291;-59
2022/05/07 13:19:16;;;;;;;10.75;4.80;;;19.60;63.10;;;;;;5043887;28;20275;-59
2022/05/07 13:21:42;;;;;;;11.45;4.80;;;19.60;62.80;;;;;;5038866;28;20033;-59
2022/05/07 13:24:11;;;;;;;8.30;4.57;;;19.60;62.90;;;;;;5039487;28;20087;-59
2022/05/07 13:26:37;;;;;;;13.98;5.00;;;19.60;62.80;;;;;;5034942;28;20021;-59